Terminal Aerodrome Forecast
Issued by NWS

Home | Current Version | Previous Version | Text Only | Print | Product List | Glossary On
Versions: 1 2 3 4 5 6 7 8 9 10 11 12 13 14 15
000
FTUS45 KRIW 022300
TAFLND
TAF
KLND 022335Z 0300/0324 VRB03KT P6SM VCSH SCT030 BKN060
     FM030230 35007KT 4SM -SN SCT008 OVC020
     FM030500 32006KT 1SM -SN OVC008
     FM031600 02005KT 3SM -SN OVC012
     FM031900 02004KT 5SM -SN OVC025=

USA.gov is the U.S. government's official web portal to all federal, state and local government web resources and services.